createdAt,value
2017-11-16T00:01:26.268Z,10.30
2017-11-16T00:03:54.742Z,10.20
2017-11-16T00:06:23.320Z,10.40
2017-11-16T00:08:51.496Z,10.30
2017-11-16T00:11:20.053Z,10.30
2017-11-16T00:13:48.233Z,10.40
2017-11-16T00:16:16.397Z,10.30
2017-11-16T00:18:45.176Z,10.30
2017-11-16T00:21:13.347Z,10.30
2017-11-16T00:23:41.523Z,10.40
2017-11-16T00:26:09.853Z,10.30
2017-11-16T00:28:38.032Z,10.30
2017-11-16T00:31:06.195Z,10.20
2017-11-16T00:33:34.370Z,10.30
2017-11-16T00:36:02.548Z,10.40
2017-11-16T00:38:36.808Z,10.40
2017-11-16T00:41:04.978Z,10.40
2017-11-16T00:43:33.167Z,10.20
2017-11-16T00:46:02.083Z,10.20
2017-11-16T00:48:30.856Z,10.20
2017-11-16T00:50:59.029Z,10.30
2017-11-16T00:53:27.206Z,10.40
2017-11-16T00:55:55.401Z,10.20
2017-11-16T00:58:23.653Z,10.20
2017-11-16T01:00:52.137Z,10.20
2017-11-16T01:03:20.354Z,10.20
2017-11-16T01:05:49.299Z,10.30
2017-11-16T01:08:17.459Z,10.30
2017-11-16T01:10:46.131Z,10.30
2017-11-16T01:13:14.304Z,10.40
2017-11-16T01:15:42.493Z,10.20
2017-11-16T01:18:10.717Z,10.20
2017-11-16T01:20:39.650Z,10.20
2017-11-16T01:23:07.815Z,10.20
2017-11-16T01:25:35.997Z,10.20
2017-11-16T01:28:04.166Z,10.30
2017-11-16T01:30:32.363Z,10.40
2017-11-16T01:33:00.533Z,10.50
2017-11-16T01:35:28.752Z,10.50
2017-11-16T01:37:57.790Z,10.30
2017-11-16T01:40:25.968Z,10.30
2017-11-16T01:42:54.138Z,10.40
2017-11-16T01:45:22.466Z,10.40
2017-11-16T01:47:51.415Z,10.30
2017-11-16T01:50:19.564Z,10.30
2017-11-16T01:52:47.730Z,10.20
2017-11-16T01:55:15.897Z,10.30
2017-11-16T01:57:44.062Z,10.30
2017-11-16T02:00:12.217Z,10.40
2017-11-16T02:02:41.152Z,10.40
2017-11-16T02:05:09.303Z,10.50
2017-11-16T02:07:38.280Z,10.50
2017-11-16T02:10:07.192Z,10.40
2017-11-16T02:12:35.381Z,10.40
2017-11-16T02:15:03.531Z,10.50
2017-11-16T02:17:31.703Z,10.60
2017-11-16T02:19:59.861Z,10.50
2017-11-16T02:22:28.803Z,10.50
2017-11-16T02:24:56.972Z,10.50
2017-11-16T02:27:25.118Z,10.50
2017-11-16T02:29:53.282Z,10.80
2017-11-16T02:32:21.433Z,10.80
2017-11-16T02:34:50.389Z,10.80
2017-11-16T02:37:18.541Z,10.80
2017-11-16T02:39:46.716Z,10.80
2017-11-16T02:42:14.867Z,11.00
2017-11-16T02:44:43.039Z,10.90
2017-11-16T02:47:11.221Z,11.00
2017-11-16T02:49:39.398Z,10.90
2017-11-16T02:52:07.578Z,10.70
2017-11-16T02:54:36.122Z,10.70
2017-11-16T02:57:05.039Z,10.80
2017-11-16T02:59:33.209Z,10.80
2017-11-16T03:02:01.353Z,10.90
2017-11-16T03:04:30.335Z,10.50
2017-11-16T03:06:58.500Z,10.50
2017-11-16T03:09:26.646Z,10.50
2017-11-16T03:11:54.828Z,10.50
2017-11-16T03:14:22.994Z,10.70
2017-11-16T03:16:51.170Z,10.80
2017-11-16T03:19:19.319Z,11.00
2017-11-16T03:21:47.487Z,11.10
2017-11-16T03:24:15.668Z,11.20
2017-11-16T03:26:43.917Z,11.30
2017-11-16T03:29:12.224Z,11.20
2017-11-16T03:31:40.392Z,11.30
2017-11-16T03:34:08.538Z,11.40
2017-11-16T03:36:36.699Z,11.20
2017-11-16T03:39:05.618Z,11.00
2017-11-16T03:41:33.808Z,11.00
2017-11-16T03:44:02.083Z,10.80
2017-11-16T03:46:30.249Z,10.70
2017-11-16T03:48:58.404Z,10.80
2017-11-16T03:51:26.611Z,10.80
2017-11-16T03:53:54.771Z,10.50
2017-11-16T03:56:22.931Z,10.60
2017-11-16T03:58:51.677Z,10.70
2017-11-16T04:01:19.974Z,10.50
2017-11-16T04:03:48.136Z,10.50
2017-11-16T04:06:16.306Z,10.50
2017-11-16T04:08:45.253Z,10.70
2017-11-16T04:11:13.399Z,10.70
2017-11-16T04:13:41.566Z,10.50
2017-11-16T04:16:09.730Z,10.60
2017-11-16T04:18:37.895Z,10.50
2017-11-16T04:21:06.834Z,10.60
2017-11-16T04:23:35.014Z,10.60
2017-11-16T04:26:03.167Z,10.50
2017-11-16T04:28:31.357Z,10.50
2017-11-16T04:30:59.514Z,10.40
2017-11-16T04:33:27.739Z,10.40
2017-11-16T04:35:56.678Z,10.30
2017-11-16T04:38:24.856Z,10.40
2017-11-16T04:40:53.011Z,10.50
2017-11-16T04:43:21.171Z,10.50
2017-11-16T04:45:49.316Z,10.50
2017-11-16T04:48:17.483Z,10.50
2017-11-16T04:50:45.659Z,10.50
2017-11-16T04:53:14.633Z,10.50
2017-11-16T04:55:42.813Z,10.10
2017-11-16T04:58:11.273Z,10.20
2017-11-16T05:00:39.445Z,10.40
2017-11-16T05:03:07.620Z,10.50
2017-11-16T05:05:35.796Z,10.60
2017-11-16T05:08:03.952Z,10.50
2017-11-16T05:10:32.114Z,10.30
2017-11-16T05:13:00.287Z,10.30
2017-11-16T05:15:28.455Z,10.30
2017-11-16T05:17:56.604Z,10.30
2017-11-16T05:20:25.652Z,10.30
2017-11-16T05:22:53.812Z,10.30
2017-11-16T05:25:22.003Z,10.50
2017-11-16T05:27:50.162Z,10.50
2017-11-16T05:30:18.319Z,10.50
2017-11-16T05:32:46.498Z,10.30
2017-11-16T05:35:14.658Z,10.20
2017-11-16T05:37:42.839Z,10.30
2017-11-16T05:40:11.075Z,10.10
2017-11-16T05:42:40.103Z,9.90
2017-11-16T05:45:08.508Z,9.90
2017-11-16T05:47:36.687Z,9.90
2017-11-16T05:50:04.841Z,10.00
2017-11-16T05:52:33.045Z,10.00
2017-11-16T05:55:01.287Z,10.00
2017-11-16T05:57:29.556Z,10.10
2017-11-16T05:59:57.743Z,10.10
2017-11-16T06:02:25.919Z,10.10
2017-11-16T06:04:54.076Z,10.00
2017-11-16T06:07:22.231Z,10.00
2017-11-16T06:09:50.429Z,10.00
2017-11-16T06:12:18.574Z,9.90
2017-11-16T06:14:46.746Z,10.00
2017-11-16T06:17:14.892Z,9.90
2017-11-16T06:19:43.814Z,9.80
2017-11-16T06:22:12.775Z,9.80
2017-11-16T06:24:41.736Z,9.90
2017-11-16T06:27:09.885Z,9.80
2017-11-16T06:29:38.162Z,9.90
2017-11-16T06:32:06.324Z,9.90
2017-11-16T06:34:34.502Z,9.90
2017-11-16T06:37:02.649Z,9.90
2017-11-16T06:39:30.850Z,9.90
2017-11-16T06:41:59.020Z,9.90
2017-11-16T06:44:27.827Z,9.90
2017-11-16T06:46:55.978Z,10.00
2017-11-16T06:49:24.146Z,9.90
2017-11-16T06:51:52.335Z,10.10
2017-11-16T06:54:20.528Z,10.10
2017-11-16T06:56:48.691Z,10.10
2017-11-16T06:59:16.843Z,10.00
2017-11-16T07:01:45.007Z,10.00
2017-11-16T07:04:13.151Z,10.00
2017-11-16T07:06:42.083Z,9.90
2017-11-16T07:09:10.241Z,9.90
2017-11-16T07:11:38.431Z,9.80
2017-11-16T07:14:06.591Z,9.80
2017-11-16T07:16:34.754Z,9.80
2017-11-16T07:19:03.400Z,9.90
2017-11-16T07:21:31.608Z,10.00
2017-11-16T07:23:59.764Z,10.00
2017-11-16T07:26:28.707Z,10.00
2017-11-16T07:28:56.853Z,10.00
2017-11-16T07:31:25.048Z,9.90
2017-11-16T07:33:53.191Z,9.90
2017-11-16T07:36:21.367Z,10.00
2017-11-16T07:38:49.667Z,10.00
2017-11-16T07:41:17.834Z,9.90
2017-11-16T07:43:45.987Z,9.80
2017-11-16T07:46:14.187Z,9.90
2017-11-16T07:48:42.338Z,10.00
2017-11-16T07:51:10.517Z,10.00
2017-11-16T07:53:38.826Z,10.00
2017-11-16T07:56:06.973Z,10.00
2017-11-16T07:58:35.287Z,9.70
2017-11-16T08:01:03.447Z,9.90
2017-11-16T08:03:31.615Z,9.80
2017-11-16T08:05:59.763Z,9.90
2017-11-16T08:08:27.953Z,10.10
2017-11-16T08:10:56.110Z,10.00
2017-11-16T08:13:24.302Z,10.10
2017-11-16T08:15:52.480Z,10.20
2017-11-16T08:18:20.722Z,10.40
2017-11-16T08:20:48.883Z,10.50
2017-11-16T08:23:17.096Z,10.50
2017-11-16T08:25:45.565Z,10.40
2017-11-16T08:28:13.763Z,10.60
2017-11-16T08:30:42.029Z,10.70
2017-11-16T08:33:10.729Z,10.60
2017-11-16T08:35:38.905Z,10.50
2017-11-16T08:38:07.052Z,10.40
2017-11-16T08:40:35.220Z,10.40
2017-11-16T08:43:03.378Z,10.40
2017-11-16T08:45:31.575Z,10.60
2017-11-16T08:47:59.728Z,10.50
2017-11-16T08:50:28.471Z,10.50
2017-11-16T08:52:56.635Z,10.50
2017-11-16T08:55:24.933Z,10.50
2017-11-16T08:57:53.861Z,10.60
2017-11-16T09:00:22.042Z,10.60
2017-11-16T09:02:50.187Z,10.40
2017-11-16T09:05:18.350Z,10.40
2017-11-16T09:07:46.523Z,10.40
2017-11-16T09:10:14.699Z,10.30
2017-11-16T09:12:42.850Z,10.30
2017-11-16T09:15:11.810Z,10.40
2017-11-16T09:17:40.059Z,10.50
2017-11-16T09:20:08.227Z,10.50
2017-11-16T09:22:36.407Z,10.70
2017-11-16T09:25:04.587Z,10.80
2017-11-16T09:27:32.764Z,10.90
2017-11-16T09:30:00.924Z,10.80
2017-11-16T09:32:29.116Z,10.30
2017-11-16T09:34:57.291Z,10.20
2017-11-16T09:37:25.459Z,10.00
2017-11-16T09:39:53.604Z,10.20
2017-11-16T09:42:21.794Z,10.40
2017-11-16T09:44:49.981Z,10.50
2017-11-16T09:47:18.211Z,10.50
2017-11-16T09:49:46.383Z,10.40
2017-11-16T09:52:14.590Z,10.40
2017-11-16T09:54:42.758Z,10.50
2017-11-16T09:57:11.196Z,10.70
2017-11-16T09:59:40.340Z,10.90
2017-11-16T10:02:08.514Z,10.80
2017-11-16T10:04:36.692Z,11.00
2017-11-16T10:07:04.859Z,11.10
2017-11-16T10:09:33.023Z,11.20
2017-11-16T10:12:01.170Z,11.10
2017-11-16T10:14:29.371Z,11.20
2017-11-16T10:16:57.547Z,11.20
2017-11-16T10:19:25.727Z,11.10
2017-11-16T10:21:53.902Z,10.90
2017-11-16T10:24:22.078Z,11.10
2017-11-16T10:26:50.256Z,11.20
2017-11-16T10:29:18.440Z,11.20
2017-11-16T10:31:46.590Z,11.30
2017-11-16T10:34:14.751Z,11.30
2017-11-16T10:36:42.946Z,11.40
2017-11-16T10:39:11.196Z,11.30
2017-11-16T10:41:39.384Z,11.20
2017-11-16T10:44:07.587Z,11.20
2017-11-16T10:46:35.751Z,11.30
2017-11-16T10:49:03.913Z,11.30
2017-11-16T10:51:32.089Z,11.30
2017-11-16T10:54:00.336Z,11.40
2017-11-16T10:56:28.509Z,11.30
2017-11-16T10:58:56.651Z,11.50
2017-11-16T11:01:24.818Z,11.40
2017-11-16T11:03:53.855Z,11.20
2017-11-16T11:06:22.033Z,11.20
2017-11-16T11:08:50.979Z,11.10
2017-11-16T11:11:19.292Z,11.10
2017-11-16T11:13:47.435Z,11.20
2017-11-16T11:16:15.594Z,11.30
2017-11-16T11:18:44.531Z,11.50
2017-11-16T11:21:12.703Z,11.50
2017-11-16T11:23:40.878Z,11.40
2017-11-16T11:26:09.045Z,11.50
2017-11-16T11:28:38.039Z,11.60
2017-11-16T11:31:06.204Z,11.60
2017-11-16T11:33:34.378Z,11.80
2017-11-16T11:36:02.540Z,11.70
2017-11-16T11:38:30.727Z,11.60
2017-11-16T11:40:58.880Z,11.50
2017-11-16T11:43:27.051Z,11.50
2017-11-16T11:45:55.215Z,11.60
2017-11-16T11:48:23.378Z,11.70
2017-11-16T11:50:52.303Z,11.70
2017-11-16T11:53:20.504Z,11.70
2017-11-16T11:55:48.668Z,11.60
2017-11-16T11:58:16.816Z,11.50
2017-11-16T12:00:45.016Z,11.50
2017-11-16T12:03:13.166Z,11.60
2017-11-16T12:05:41.357Z,11.50
2017-11-16T12:08:09.517Z,11.50
2017-11-16T12:10:37.686Z,11.50
2017-11-16T12:13:05.854Z,11.50
2017-11-16T12:15:34.021Z,11.60
2017-11-16T12:18:02.205Z,11.50
2017-11-16T12:20:30.380Z,11.70
2017-11-16T12:22:58.531Z,11.80
2017-11-16T12:25:26.719Z,11.60
2017-11-16T12:27:55.491Z,11.30
2017-11-16T12:30:23.684Z,11.40
2017-11-16T12:32:51.840Z,11.40
2017-11-16T12:35:19.991Z,11.40
2017-11-16T12:37:48.922Z,11.50
2017-11-16T12:40:17.087Z,11.50
2017-11-16T12:42:45.586Z,11.60
2017-11-16T12:45:13.777Z,11.60
2017-11-16T12:47:41.951Z,11.70
2017-11-16T12:50:10.614Z,11.70
2017-11-16T12:52:38.791Z,11.70
2017-11-16T12:55:06.935Z,11.70
2017-11-16T12:57:35.935Z,11.80
2017-11-16T13:00:04.091Z,12.00
2017-11-16T13:02:32.256Z,11.90
2017-11-16T13:05:00.405Z,11.80
2017-11-16T13:07:28.585Z,11.60
2017-11-16T13:09:57.508Z,11.60
2017-11-16T13:12:25.737Z,11.60
2017-11-16T13:14:54.399Z,11.40
2017-11-16T13:17:22.585Z,11.40
2017-11-16T13:19:50.822Z,11.40
2017-11-16T13:22:18.973Z,11.20
2017-11-16T13:24:47.167Z,11.20
2017-11-16T13:27:15.302Z,11.20
2017-11-16T13:29:44.241Z,11.20
2017-11-16T13:32:12.416Z,11.20
2017-11-16T13:34:40.589Z,11.20
2017-11-16T13:37:08.751Z,11.10
2017-11-16T13:39:36.940Z,11.10
2017-11-16T13:42:05.084Z,11.20
2017-11-16T13:44:33.251Z,11.20
2017-11-16T13:47:01.402Z,11.40
2017-11-16T13:49:30.341Z,11.30
2017-11-16T13:51:58.500Z,11.30
2017-11-16T13:54:26.662Z,11.20
2017-11-16T13:56:54.936Z,11.30
2017-11-16T13:59:23.509Z,11.20
2017-11-16T14:01:51.663Z,11.20
2017-11-16T14:04:20.651Z,11.30
2017-11-16T14:06:48.804Z,11.20
2017-11-16T14:09:16.959Z,11.00
2017-11-16T14:11:45.126Z,11.00
2017-11-16T14:14:13.286Z,11.10
2017-11-16T14:16:41.461Z,11.00
2017-11-16T14:19:09.628Z,11.10
2017-11-16T14:21:37.802Z,11.00
2017-11-16T14:24:05.977Z,11.00
2017-11-16T14:26:34.143Z,10.90
2017-11-16T14:29:03.271Z,10.80
2017-11-16T14:31:31.444Z,10.80
2017-11-16T14:33:59.586Z,10.90
2017-11-16T14:36:27.756Z,10.90
2017-11-16T14:38:55.925Z,10.90
2017-11-16T14:41:24.096Z,10.70
2017-11-16T14:43:52.265Z,10.70
2017-11-16T14:46:20.449Z,10.60
2017-11-16T14:48:48.636Z,10.60
2017-11-16T14:51:16.801Z,10.60
2017-11-16T14:53:44.948Z,10.60
2017-11-16T14:56:14.283Z,10.60
2017-11-16T14:58:42.434Z,10.60
2017-11-16T15:01:10.579Z,10.50
2017-11-16T15:03:40.239Z,10.50
2017-11-16T15:06:08.389Z,10.50
2017-11-16T15:08:36.556Z,10.50
2017-11-16T15:11:04.695Z,10.50
2017-11-16T15:13:32.888Z,10.30
2017-11-16T15:16:01.816Z,10.30
2017-11-16T15:18:29.984Z,10.30
2017-11-16T15:20:58.135Z,10.20
2017-11-16T15:23:27.147Z,10.30
2017-11-16T15:25:55.300Z,10.20
2017-11-16T15:28:23.473Z,10.20
2017-11-16T15:30:51.629Z,10.20
2017-11-16T15:33:20.565Z,10.30
2017-11-16T15:35:48.719Z,10.40
2017-11-16T15:38:17.111Z,10.40
2017-11-16T15:40:45.266Z,10.50
2017-11-16T15:43:13.415Z,10.50
2017-11-16T15:45:42.354Z,10.70
2017-11-16T15:48:10.502Z,10.60
2017-11-16T15:50:38.667Z,10.50
2017-11-16T15:53:06.822Z,10.60
2017-11-16T15:55:35.752Z,10.40
2017-11-16T15:58:04.407Z,10.40
2017-11-16T16:00:32.590Z,10.40
2017-11-16T16:03:00.756Z,10.40
2017-11-16T16:05:28.927Z,10.50
2017-11-16T16:07:57.086Z,10.40
2017-11-16T16:10:26.840Z,10.50
2017-11-16T16:12:55.023Z,10.40
2017-11-16T16:15:23.213Z,10.50
2017-11-16T16:17:51.362Z,10.50
2017-11-16T16:20:19.513Z,10.40
2017-11-16T16:22:47.806Z,10.40
2017-11-16T16:25:15.959Z,10.20
2017-11-16T16:27:44.154Z,10.10
2017-11-16T16:30:12.311Z,10.10
2017-11-16T16:32:40.471Z,10.00
2017-11-16T16:35:08.671Z,9.90
2017-11-16T16:37:36.948Z,9.70
2017-11-16T16:40:05.096Z,9.70
2017-11-16T16:42:33.266Z,9.60
2017-11-16T16:45:01.602Z,9.50
2017-11-16T16:47:29.844Z,9.40
2017-11-16T16:49:57.994Z,9.40
2017-11-16T16:52:26.190Z,9.40
2017-11-16T16:54:54.365Z,9.30
2017-11-16T16:57:22.541Z,9.30
2017-11-16T16:59:50.737Z,9.20
2017-11-16T17:02:18.987Z,9.20
2017-11-16T17:04:47.152Z,9.20
2017-11-16T17:07:15.336Z,9.20
2017-11-16T17:09:43.518Z,9.10
2017-11-16T17:12:11.671Z,9.10
2017-11-16T17:14:39.871Z,9.00
2017-11-16T17:17:08.017Z,9.00
2017-11-16T17:19:36.393Z,8.90
2017-11-16T17:22:04.540Z,8.90
2017-11-16T17:24:33.459Z,9.00
2017-11-16T17:27:01.608Z,8.90
2017-11-16T17:29:29.768Z,9.10
2017-11-16T17:31:58.696Z,9.00
2017-11-16T17:34:26.853Z,9.00
2017-11-16T17:36:55.039Z,9.10
2017-11-16T17:39:23.174Z,9.00
2017-11-16T17:41:52.103Z,9.20
2017-11-16T17:44:20.901Z,9.20
2017-11-16T17:46:49.067Z,9.20
2017-11-16T17:49:17.223Z,9.20
2017-11-16T17:51:45.411Z,9.20
2017-11-16T17:54:13.558Z,9.20
2017-11-16T17:56:41.780Z,9.10
2017-11-16T17:59:09.979Z,9.20
2017-11-16T18:01:38.933Z,9.00
2017-11-16T18:04:07.099Z,8.90
2017-11-16T18:06:35.261Z,8.90
2017-11-16T18:09:03.463Z,8.80
2017-11-16T18:11:31.626Z,8.80
2017-11-16T18:13:59.784Z,8.80
2017-11-16T18:16:27.959Z,8.80
2017-11-16T18:18:56.123Z,8.60
2017-11-16T18:21:24.273Z,8.70
2017-11-16T18:23:52.474Z,8.60
2017-11-16T18:26:20.623Z,8.60
2017-11-16T18:28:48.787Z,8.50
2017-11-16T18:31:17.002Z,8.40
2017-11-16T18:33:45.172Z,8.50
2017-11-16T18:36:13.320Z,8.40
2017-11-16T18:38:41.495Z,8.30
2017-11-16T18:41:09.643Z,8.20
2017-11-16T18:43:38.570Z,8.20
2017-11-16T18:46:06.834Z,8.20
2017-11-16T18:48:34.999Z,8.10
2017-11-16T18:51:03.201Z,8.00
2017-11-16T18:53:31.381Z,8.00
2017-11-16T18:55:59.545Z,7.90
2017-11-16T18:58:27.691Z,7.90
2017-11-16T19:00:56.070Z,8.10
2017-11-16T19:03:24.214Z,8.10
2017-11-16T19:05:53.131Z,8.00
2017-11-16T19:08:21.292Z,8.00
2017-11-16T19:10:50.219Z,8.10
2017-11-16T19:13:18.359Z,8.10
2017-11-16T19:15:46.528Z,8.10
2017-11-16T19:18:14.680Z,8.00
2017-11-16T19:20:44.468Z,7.90
2017-11-16T19:23:12.616Z,7.90
2017-11-16T19:25:40.791Z,7.90
2017-11-16T19:28:08.939Z,7.80
2017-11-16T19:30:37.090Z,7.60
2017-11-16T19:33:06.054Z,7.70
2017-11-16T19:35:34.322Z,7.70
2017-11-16T19:38:02.479Z,7.80
2017-11-16T19:40:30.672Z,7.60
2017-11-16T19:43:00.164Z,7.60
2017-11-16T19:45:28.334Z,7.60
2017-11-16T19:47:56.483Z,7.50
2017-11-16T19:50:24.626Z,7.40
2017-11-16T19:52:53.559Z,7.40
2017-11-16T19:55:21.735Z,7.40
2017-11-16T19:57:50.022Z,7.40
2017-11-16T20:00:18.203Z,7.30
2017-11-16T20:02:46.451Z,7.10
2017-11-16T20:05:14.596Z,7.10
2017-11-16T20:07:43.543Z,6.90
2017-11-16T20:10:11.713Z,6.90
2017-11-16T20:12:39.871Z,6.90
2017-11-16T20:15:08.020Z,6.90
2017-11-16T20:17:36.199Z,6.90
2017-11-16T20:20:04.357Z,6.90
2017-11-16T20:22:32.530Z,6.80
2017-11-16T20:25:00.700Z,6.70
2017-11-16T20:27:28.908Z,6.70
2017-11-16T20:29:57.063Z,6.60
2017-11-16T20:32:25.885Z,6.60
2017-11-16T20:34:54.854Z,6.50
2017-11-16T20:37:23.006Z,6.50
2017-11-16T20:43:10.995Z,6.50
2017-11-16T20:45:44.739Z,6.50
2017-11-16T20:48:19.521Z,6.40
2017-11-16T20:50:53.326Z,6.30
2017-11-16T20:53:22.410Z,6.40
2017-11-16T20:55:51.007Z,6.50
2017-11-16T20:58:19.159Z,6.50
2017-11-16T21:00:47.312Z,6.40
2017-11-16T21:03:15.467Z,6.50
2017-11-16T21:05:44.391Z,6.60
2017-11-16T21:08:13.131Z,6.60
2017-11-16T21:10:42.070Z,6.60
2017-11-16T21:13:10.211Z,6.60
2017-11-16T21:15:39.147Z,6.50
2017-11-16T21:18:07.300Z,6.50
2017-11-16T21:20:35.462Z,6.50
2017-11-16T21:23:03.599Z,6.40
2017-11-16T21:25:31.760Z,6.40
2017-11-16T21:27:59.906Z,6.30
2017-11-16T21:30:28.059Z,6.30
2017-11-16T21:32:56.198Z,6.30
2017-11-16T21:35:25.687Z,6.30
2017-11-16T21:37:53.831Z,6.30
2017-11-16T21:40:22.012Z,6.40
2017-11-16T21:42:50.163Z,6.40
2017-11-16T21:45:18.730Z,6.40
2017-11-16T21:47:46.889Z,6.50
2017-11-16T21:50:15.797Z,6.60
2017-11-16T21:52:43.959Z,6.50
2017-11-16T21:55:12.099Z,6.60
2017-11-16T21:57:40.347Z,6.70
2017-11-16T22:00:08.495Z,6.70
2017-11-16T22:02:36.837Z,6.70
2017-11-16T22:05:05.755Z,6.60
2017-11-16T22:07:33.954Z,6.60
2017-11-16T22:10:02.094Z,6.60
2017-11-16T22:12:30.369Z,6.60
2017-11-16T22:14:58.570Z,6.60
2017-11-16T22:17:26.758Z,6.60
2017-11-16T22:19:54.891Z,6.80
2017-11-16T22:22:23.096Z,6.80
2017-11-16T22:24:51.239Z,6.80
2017-11-16T22:27:19.794Z,6.70
2017-11-16T22:29:48.686Z,6.60
2017-11-16T22:32:17.612Z,6.70
2017-11-16T22:34:45.755Z,6.60
2017-11-16T22:37:14.679Z,6.70
2017-11-16T22:39:42.851Z,6.80
2017-11-16T22:42:11.701Z,6.70
2017-11-16T22:44:40.604Z,6.50
2017-11-16T22:47:09.524Z,6.50
2017-11-16T22:49:37.702Z,6.40
2017-11-16T22:52:05.846Z,6.50
2017-11-16T22:54:34.624Z,6.40
2017-11-16T22:57:03.560Z,6.40
2017-11-16T22:59:31.735Z,6.40
2017-11-16T23:01:59.891Z,6.50
2017-11-16T23:04:28.109Z,6.40
2017-11-16T23:06:56.263Z,6.40
2017-11-16T23:09:24.422Z,6.40
2017-11-16T23:11:52.559Z,6.40
2017-11-16T23:14:21.036Z,6.50
2017-11-16T23:16:49.189Z,6.50
2017-11-16T23:19:18.128Z,6.30
2017-11-16T23:21:46.281Z,6.30
2017-11-16T23:24:14.467Z,6.30
2017-11-16T23:26:42.603Z,6.30
2017-11-16T23:29:11.568Z,6.40
2017-11-16T23:31:39.839Z,6.40
2017-11-16T23:34:07.990Z,6.50
2017-11-16T23:36:36.151Z,6.40
2017-11-16T23:39:04.298Z,6.40
2017-11-16T23:41:32.467Z,6.40
2017-11-16T23:44:00.677Z,6.40
2017-11-16T23:46:28.835Z,6.40
2017-11-16T23:48:56.990Z,6.40
2017-11-16T23:51:25.155Z,6.50
2017-11-16T23:53:53.320Z,6.50
2017-11-16T23:56:22.252Z,6.30
2017-11-16T23:58:50.395Z,6.30
